createdAt,value
2022-10-11T00:00:17.059Z,0
2022-10-11T00:01:18.045Z,0
2022-10-11T00:02:19.350Z,0
2022-10-11T00:03:18.692Z,0
2022-10-11T00:04:19.299Z,0
2022-10-11T00:05:19.920Z,0
2022-10-11T00:06:21.043Z,0
2022-10-11T00:07:21.363Z,0
2022-10-11T00:08:20.976Z,0
2022-10-11T00:09:21.590Z,0
2022-10-11T00:10:22.537Z,0
2022-10-11T00:11:22.871Z,0
2022-10-11T00:12:23.793Z,0
2022-10-11T00:13:25.028Z,0
2022-10-11T00:14:24.908Z,0
2022-10-11T00:15:25.795Z,0
2022-10-11T00:16:26.415Z,0
2022-10-11T00:17:27.588Z,0
2022-10-11T00:18:28.216Z,0
2022-10-11T00:19:29.107Z,0
2022-10-11T00:20:30.020Z,0
2022-10-11T00:21:30.923Z,0
2022-10-11T00:22:31.839Z,0
2022-10-11T00:23:31.166Z,0
2022-10-11T00:24:32.778Z,0
2022-10-11T00:25:34.293Z,0
2022-10-11T00:26:33.897Z,0
2022-10-11T00:27:35.489Z,0
2022-10-11T00:28:35.499Z,0
2022-10-11T00:29:35.983Z,0
2022-10-11T00:30:36.167Z,0
2022-10-11T00:31:40.631Z,0
2022-10-11T00:32:36.870Z,0
2022-10-11T00:33:36.516Z,0
2022-10-11T00:34:37.435Z,0
2022-10-11T00:35:38.003Z,0
2022-10-11T00:36:38.618Z,0
2022-10-11T00:37:39.313Z,0
2022-10-11T00:38:42.642Z,0
2022-10-11T00:39:40.767Z,0
2022-10-11T00:40:41.287Z,0
2022-10-11T00:41:40.626Z,0
2022-10-11T00:42:41.532Z,0
2022-10-11T00:43:42.500Z,0
2022-10-11T00:44:42.399Z,0
2022-10-11T00:45:43.328Z,0
2022-10-11T00:46:43.968Z,0
2022-10-11T00:47:45.279Z,0
2022-10-11T00:48:44.598Z,0
2022-10-11T00:49:46.215Z,0
2022-10-11T00:50:46.840Z,0
2022-10-11T00:51:48.900Z,0
2022-10-11T00:52:48.219Z,0
2022-10-11T00:53:49.120Z,0
2022-10-11T00:54:50.012Z,0
2022-10-11T00:55:51.234Z,0
2022-10-11T00:56:51.445Z,0
2022-10-11T00:57:52.467Z,0
2022-10-11T00:58:52.382Z,0
2022-10-11T00:59:53.857Z,0
2022-10-11T01:00:53.609Z,0
2022-10-11T01:01:55.249Z,0
2022-10-11T01:02:55.496Z,0
2022-10-11T01:03:55.413Z,0
2022-10-11T01:05:28.466Z,0
2022-10-11T01:05:55.323Z,0
2022-10-11T01:06:55.938Z,0
2022-10-11T01:07:56.960Z,0
2022-10-11T01:08:58.007Z,0
2022-10-11T01:09:57.925Z,0
2022-10-11T01:10:59.146Z,0
2022-10-11T01:11:59.769Z,0
2022-10-11T01:13:01.253Z,0
2022-10-11T01:14:00.896Z,0
2022-10-11T01:15:02.078Z,0
2022-10-11T01:16:02.976Z,0
2022-10-11T01:17:03.382Z,0
2022-10-11T01:18:04.693Z,0
2022-10-11T01:19:04.285Z,0
2022-10-11T01:20:04.898Z,0
2022-10-11T01:21:04.980Z,0
2022-10-11T01:22:06.892Z,0
2022-10-11T01:23:08.102Z,0
2022-10-11T01:24:13.317Z,0
2022-10-11T01:25:08.507Z,0
2022-10-11T01:26:09.469Z,0
2022-10-11T01:27:09.658Z,0
2022-10-11T01:28:10.736Z,0
2022-10-11T01:29:11.059Z,0
2022-10-11T01:30:11.234Z,0
2022-10-11T01:31:11.875Z,0
2022-10-11T01:32:12.192Z,0
2022-10-11T01:33:13.698Z,0
2022-10-11T01:34:13.897Z,0
2022-10-11T01:35:15.111Z,0
2022-10-11T01:36:15.583Z,0
2022-10-11T01:37:15.802Z,0
2022-10-11T01:38:16.516Z,0
2022-10-11T01:39:17.459Z,0
2022-10-11T01:40:18.375Z,0
2022-10-11T01:41:19.342Z,0
2022-10-11T01:42:19.994Z,0
2022-10-11T01:43:20.770Z,0
2022-10-11T01:44:21.147Z,0
2022-10-11T01:45:22.577Z,0
2022-10-11T01:46:23.145Z,0
2022-10-11T01:47:23.414Z,0
2022-10-11T01:48:24.745Z,0
2022-10-11T01:49:24.089Z,0
2022-10-11T01:50:25.285Z,0
2022-10-11T01:51:26.195Z,0
2022-10-11T01:52:26.108Z,0
2022-10-11T01:53:27.597Z,0
2022-10-11T01:54:35.188Z,0
2022-10-11T01:55:27.950Z,0
2022-10-11T01:56:29.324Z,0
2022-10-11T01:57:29.537Z,0
2022-10-11T01:58:29.980Z,0
2022-10-11T01:59:30.639Z,0
2022-10-11T02:00:31.558Z,0
2022-10-11T02:01:33.023Z,0
2022-10-11T02:02:32.663Z,0
2022-10-11T02:03:33.424Z,0
2022-10-11T02:04:34.342Z,0
2022-10-11T02:05:33.983Z,0
2022-10-11T02:06:34.602Z,0
2022-10-11T02:07:35.540Z,0
2022-10-11T02:08:35.843Z,0
2022-10-11T02:09:35.733Z,0
2022-10-11T02:10:36.056Z,0
2022-10-11T02:11:37.268Z,0
2022-10-11T02:12:37.463Z,0
2022-10-11T02:13:38.402Z,0
2022-10-11T02:14:37.743Z,0
2022-10-11T02:15:38.653Z,0
2022-10-11T02:16:39.588Z,0
2022-10-11T02:17:39.477Z,0
2022-10-11T02:18:40.785Z,0
2022-10-11T02:19:40.415Z,0
2022-10-11T02:20:41.065Z,0
2022-10-11T02:21:42.250Z,0
2022-10-11T02:22:43.181Z,0
2022-10-11T02:23:42.804Z,0
2022-10-11T02:24:44.313Z,0
2022-10-11T02:25:44.806Z,0
2022-10-11T02:26:44.769Z,0
2022-10-11T02:27:45.388Z,0
2022-10-11T02:28:46.566Z,0
2022-10-11T02:29:47.149Z,0
2022-10-11T02:30:47.325Z,0
2022-10-11T02:31:47.234Z,0
2022-10-11T02:32:47.848Z,0
2022-10-11T02:33:49.091Z,0
2022-10-11T02:34:49.014Z,0
2022-10-11T02:35:49.621Z,0
2022-10-11T02:36:50.529Z,0
2022-10-11T02:37:50.714Z,0
2022-10-11T02:38:51.277Z,0
2022-10-11T02:39:50.892Z,0
2022-10-11T02:40:51.805Z,0
2022-10-11T02:41:53.325Z,0
2022-10-11T02:42:52.362Z,0
2022-10-11T02:43:53.458Z,0
2022-10-11T02:44:54.391Z,0
2022-10-11T02:45:55.565Z,0
2022-10-11T02:46:56.058Z,0
2022-10-11T02:47:55.970Z,0
2022-10-11T02:48:57.006Z,0
2022-10-11T02:49:57.743Z,0
2022-10-11T02:50:58.080Z,0
2022-10-11T02:51:59.273Z,0
2022-10-11T02:53:00.186Z,0
2022-10-11T02:53:59.503Z,0
2022-10-11T02:55:00.833Z,0
2022-10-11T02:56:01.431Z,0
2022-10-11T02:57:02.769Z,0
2022-10-11T02:58:03.975Z,0
2022-10-11T02:59:04.538Z,0
2022-10-11T03:00:04.498Z,0
2022-10-11T03:01:04.684Z,0
2022-10-11T03:02:04.502Z,0
2022-10-11T03:03:05.444Z,0
2022-10-11T03:04:06.952Z,0
2022-10-11T03:05:07.144Z,0
2022-10-11T03:06:08.270Z,0
2022-10-11T03:07:07.340Z,0
2022-10-11T03:08:08.257Z,0
2022-10-11T03:09:08.557Z,0
2022-10-11T03:10:09.463Z,0
2022-10-11T03:11:09.651Z,0
2022-10-11T03:12:09.949Z,0
2022-10-11T03:13:09.837Z,0
2022-10-11T03:14:11.028Z,0
2022-10-11T03:15:11.230Z,0
2022-10-11T03:16:20.881Z,0
2022-10-11T03:17:47.061Z,0
2022-10-11T03:18:11.698Z,0
2022-10-11T03:19:15.725Z,0
2022-10-11T03:20:13.175Z,0
2022-10-11T03:21:13.791Z,0
2022-10-11T03:22:14.982Z,0
2022-10-11T03:23:15.963Z,0
2022-10-11T03:24:17.174Z,0
2022-10-11T03:25:20.837Z,0
2022-10-11T03:26:20.017Z,0
2022-10-11T03:27:18.532Z,0
2022-10-11T03:28:18.339Z,0
2022-10-11T03:29:19.533Z,0
2022-10-11T03:30:23.605Z,0
2022-10-11T03:31:20.509Z,0
2022-10-11T03:32:20.923Z,0
2022-10-11T03:33:21.893Z,0
2022-10-11T03:34:22.844Z,0
2022-10-11T03:35:22.723Z,0
2022-10-11T03:36:23.650Z,0
2022-10-11T03:37:24.264Z,0
2022-10-11T03:38:29.489Z,0
2022-10-11T03:39:26.177Z,0
2022-10-11T03:40:27.076Z,0
2022-10-11T03:41:28.001Z,0
2022-10-11T03:42:29.246Z,0
2022-10-11T03:43:30.194Z,0
2022-10-11T03:44:30.828Z,0
2022-10-11T03:45:31.465Z,0
2022-10-11T03:46:32.583Z,0
2022-10-11T03:47:32.494Z,0
2022-10-11T03:48:33.712Z,0
2022-10-11T03:49:33.744Z,0
2022-10-11T03:50:33.336Z,0
2022-10-11T03:51:33.673Z,0
2022-10-11T03:52:34.862Z,0
2022-10-11T03:53:35.074Z,0
2022-10-11T03:54:35.694Z,0
2022-10-11T03:55:36.332Z,0
2022-10-11T03:56:36.394Z,0
2022-10-11T03:57:37.915Z,0
2022-10-11T03:58:37.524Z,0
2022-10-11T03:59:37.938Z,0
2022-10-11T04:00:38.935Z,0
2022-10-11T04:01:39.018Z,0
2022-10-11T04:02:44.531Z,0
2022-10-11T04:03:40.421Z,0
2022-10-11T04:04:41.958Z,0
2022-10-11T04:05:41.556Z,0
2022-10-11T04:06:42.747Z,0
2022-10-11T04:07:42.367Z,0
2022-10-11T04:08:42.682Z,0
2022-10-11T04:09:43.394Z,0
2022-10-11T04:10:44.005Z,0
2022-10-11T04:11:44.622Z,0
2022-10-11T04:12:46.146Z,0
2022-10-11T04:13:46.064Z,0
2022-10-11T04:14:47.274Z,0
2022-10-11T04:15:47.209Z,0
2022-10-11T04:16:47.815Z,0
2022-10-11T04:17:48.424Z,0
2022-10-11T04:18:49.630Z,0
2022-10-11T04:19:49.941Z,0
2022-10-11T04:20:50.156Z,0
2022-10-11T04:21:50.064Z,0
2022-10-11T04:22:50.953Z,0
2022-10-11T04:23:51.847Z,0
2022-10-11T04:24:52.172Z,0
2022-10-11T04:25:53.362Z,0
2022-10-11T04:26:54.572Z,0
2022-10-11T04:27:55.089Z,0
2022-10-11T04:28:55.430Z,0
2022-10-11T04:29:55.222Z,0
2022-10-11T04:30:56.180Z,0
2022-10-11T04:31:56.106Z,0
2022-10-11T04:32:57.138Z,0
2022-10-11T04:33:57.777Z,0
2022-10-11T04:34:58.722Z,0
2022-10-11T04:35:58.909Z,0
2022-10-11T04:37:02.933Z,0
2022-10-11T04:37:59.268Z,0
2022-10-11T04:39:00.454Z,0
2022-10-11T04:40:00.894Z,0
2022-10-11T04:41:01.810Z,0
2022-10-11T04:42:01.702Z,0
2022-10-11T04:43:03.218Z,0
2022-10-11T04:44:02.830Z,0
2022-10-11T04:45:03.442Z,0
2022-10-11T04:46:06.712Z,0
2022-10-11T04:47:04.829Z,0
2022-10-11T04:48:05.751Z,0
2022-10-11T04:49:06.647Z,0
2022-10-11T04:50:07.988Z,0
2022-10-11T04:51:07.592Z,0
2022-10-11T04:52:08.776Z,0
2022-10-11T04:53:09.260Z,0
2022-10-11T04:54:09.187Z,0
2022-10-11T04:55:10.363Z,0
2022-10-11T04:56:10.827Z,0
2022-10-11T04:57:10.459Z,0
2022-10-11T04:58:11.404Z,0
2022-10-11T04:59:12.054Z,0
2022-10-11T05:00:12.462Z,0
2022-10-11T05:01:12.717Z,0
2022-10-11T05:02:13.650Z,0
2022-10-11T05:03:12.715Z,0
2022-10-11T05:04:13.343Z,0
2022-10-11T05:05:13.990Z,0
2022-10-11T05:06:20.148Z,0
2022-10-11T05:07:15.129Z,0
2022-10-11T05:08:15.476Z,0
2022-10-11T05:09:16.126Z,0
2022-10-11T05:10:17.412Z,0
2022-10-11T05:11:20.966Z,0
2022-10-11T05:12:17.579Z,0
2022-10-11T05:13:19.178Z,0
2022-10-11T05:14:19.089Z,0
2022-10-11T05:15:19.735Z,0
2022-10-11T05:16:28.604Z,0
2022-10-11T05:17:21.206Z,0
2022-10-11T05:18:21.560Z,0
2022-10-11T05:19:22.163Z,0
2022-10-11T05:20:23.160Z,0
2022-10-11T05:21:24.060Z,0
2022-10-11T05:22:24.989Z,0
2022-10-11T05:23:25.080Z,0
2022-10-11T05:24:25.694Z,0
2022-10-11T05:25:26.884Z,0
2022-10-11T05:26:26.773Z,0
2022-10-11T05:27:28.260Z,0
2022-10-11T05:28:29.238Z,0
2022-10-11T05:29:28.595Z,0
2022-10-11T05:30:29.616Z,0
2022-10-11T05:31:30.211Z,0
2022-10-11T05:32:33.580Z,0
2022-10-11T05:33:31.468Z,0
2022-10-11T05:34:32.659Z,0
2022-10-11T05:35:33.302Z,0
2022-10-11T05:36:34.211Z,0
2022-10-11T05:37:35.102Z,0
2022-10-11T05:38:36.018Z,0
2022-10-11T05:39:36.934Z,0
2022-10-11T05:40:37.630Z,0
2022-10-11T05:41:38.827Z,0
2022-10-11T05:42:39.165Z,0
2022-10-11T05:43:40.409Z,0
2022-10-11T05:44:40.900Z,0
2022-10-11T05:45:40.518Z,0
2022-10-11T05:46:41.130Z,0
2022-10-11T05:47:42.102Z,0
2022-10-11T05:48:43.430Z,0
2022-10-11T05:49:43.334Z,0
2022-10-11T05:50:44.135Z,0
2022-10-11T05:51:44.202Z,0
2022-10-11T05:52:45.400Z,0
2022-10-11T05:53:45.892Z,0
2022-10-11T05:54:45.507Z,0
2022-10-11T05:55:46.595Z,0
2022-10-11T05:56:47.225Z,5.63
2022-10-11T05:57:48.127Z,5.63
2022-10-11T05:58:49.098Z,5.63
2022-10-11T05:59:48.410Z,5.63
2022-10-11T06:00:50.229Z,5.63
2022-10-11T06:01:51.211Z,5.63
2022-10-11T06:02:51.467Z,5.63
2022-10-11T06:03:51.349Z,5.63
2022-10-11T06:04:52.542Z,5.63
2022-10-11T06:06:03.251Z,5.63
2022-10-11T06:06:52.936Z,5.63
2022-10-11T06:07:53.568Z,5.63
2022-10-11T06:08:54.490Z,5.63
2022-10-11T06:09:54.687Z,5.63
2022-10-11T06:10:54.676Z,5.63
2022-10-11T06:11:55.572Z,5.63
2022-10-11T06:12:56.509Z,11.25
2022-10-11T06:13:57.027Z,11.25
2022-10-11T06:14:56.937Z,11.25
2022-10-11T06:15:56.854Z,11.25
2022-10-11T06:16:57.766Z,11.25
2022-10-11T06:17:57.989Z,11.25
2022-10-11T06:18:57.898Z,11.25
2022-10-11T06:19:58.484Z,11.25
2022-10-11T06:20:59.552Z,16.88
2022-10-11T06:21:59.467Z,16.88
2022-10-11T06:23:00.385Z,16.88
2022-10-11T06:24:06.540Z,16.88
2022-10-11T06:25:02.477Z,16.88
2022-10-11T06:26:03.574Z,16.88
2022-10-11T06:27:02.778Z,16.88
2022-10-11T06:28:04.004Z,16.88
2022-10-11T06:29:04.830Z,16.88
2022-10-11T06:30:04.747Z,16.88
2022-10-11T06:31:05.425Z,16.88
2022-10-11T06:32:05.471Z,22.5
2022-10-11T06:33:14.800Z,22.5
2022-10-11T06:34:07.488Z,22.5
2022-10-11T06:35:09.080Z,22.5
2022-10-11T06:36:09.728Z,22.5
2022-10-11T06:37:10.013Z,28.13
2022-10-11T06:38:10.636Z,28.13
2022-10-11T06:39:11.568Z,28.13
2022-10-11T06:40:12.472Z,28.13
2022-10-11T06:41:12.333Z,28.13
2022-10-11T06:42:13.980Z,28.13
2022-10-11T06:43:15.179Z,28.13
2022-10-11T06:44:19.616Z,28.13
2022-10-11T06:45:16.516Z,28.13
2022-10-11T06:46:18.314Z,28.13
2022-10-11T06:47:18.534Z,33.75
2022-10-11T06:48:18.909Z,33.75
2022-10-11T06:49:24.746Z,33.75
2022-10-11T06:50:35.083Z,33.75
2022-10-11T06:51:35.467Z,33.75
2022-10-11T06:52:35.332Z,33.75
2022-10-11T06:53:35.631Z,33.75
2022-10-11T06:54:37.083Z,33.75
2022-10-11T06:55:37.480Z,33.75
2022-10-11T06:56:37.543Z,33.75
2022-10-11T06:57:38.480Z,33.75
2022-10-11T06:58:39.098Z,33.75
2022-10-11T06:59:40.363Z,33.75
2022-10-11T07:00:41.417Z,33.75
2022-10-11T07:01:42.753Z,33.75
2022-10-11T07:02:42.107Z,33.75
2022-10-11T07:03:42.732Z,33.75
2022-10-11T07:04:43.703Z,33.75
2022-10-11T07:05:44.907Z,33.75
2022-10-11T07:06:45.136Z,33.75
2022-10-11T07:07:44.742Z,33.75
2022-10-11T07:08:45.665Z,33.75
2022-10-11T07:09:46.963Z,33.75
2022-10-11T07:10:47.188Z,33.75
2022-10-11T07:11:47.228Z,33.75
2022-10-11T07:12:47.126Z,39.38
2022-10-11T07:13:48.053Z,39.38
2022-10-11T07:14:49.282Z,39.38
2022-10-11T07:15:49.530Z,39.38
2022-10-11T07:16:50.777Z,39.38
2022-10-11T07:17:50.735Z,39.38
2022-10-11T07:18:54.834Z,39.38
2022-10-11T07:19:52.701Z,39.38
2022-10-11T07:20:53.904Z,39.38
2022-10-11T07:21:54.699Z,39.38
2022-10-11T07:22:55.618Z,39.38
2022-10-11T07:23:55.219Z,39.38
2022-10-11T07:24:55.903Z,39.38
2022-10-11T07:25:57.145Z,39.38
2022-10-11T07:26:57.045Z,39.38
2022-10-11T07:27:58.234Z,39.38
2022-10-11T07:28:59.231Z,39.38
2022-10-11T07:29:59.803Z,39.38
2022-10-11T07:31:00.014Z,39.38
2022-10-11T07:32:00.646Z,33.75
2022-10-11T07:33:00.593Z,33.75
2022-10-11T07:34:02.165Z,33.75
2022-10-11T07:35:02.261Z,33.75
2022-10-11T07:36:05.487Z,33.75
2022-10-11T07:37:04.502Z,33.75
2022-10-11T07:38:03.867Z,33.75
2022-10-11T07:39:04.803Z,33.75
2022-10-11T07:40:05.157Z,33.75
2022-10-11T07:41:06.345Z,33.75
2022-10-11T07:42:07.287Z,33.75
2022-10-11T07:43:07.206Z,33.75
2022-10-11T07:44:07.826Z,33.75
2022-10-11T07:45:09.168Z,33.75
2022-10-11T07:46:10.782Z,33.75
2022-10-11T07:47:15.733Z,33.75
2022-10-11T07:48:10.950Z,33.75
2022-10-11T07:49:10.868Z,33.75
2022-10-11T07:50:12.106Z,33.75
2022-10-11T07:51:12.001Z,33.75
2022-10-11T07:52:13.092Z,33.75
2022-10-11T07:53:14.589Z,33.75
2022-10-11T07:54:18.451Z,33.75
2022-10-11T07:55:14.662Z,33.75
2022-10-11T07:56:16.320Z,33.75
2022-10-11T07:57:15.941Z,33.75
2022-10-11T07:58:16.920Z,33.75
2022-10-11T07:59:16.849Z,28.13
2022-10-11T08:00:18.090Z,28.13
2022-10-11T08:01:18.360Z,28.13
2022-10-11T08:02:17.845Z,28.13
2022-10-11T08:03:18.173Z,28.13
2022-10-11T08:04:20.150Z,28.13
2022-10-11T08:05:20.640Z,28.13
2022-10-11T08:06:21.651Z,28.13
2022-10-11T08:07:21.666Z,28.13
2022-10-11T08:08:21.810Z,28.13
2022-10-11T08:09:22.138Z,28.13
2022-10-11T08:10:23.143Z,28.13
2022-10-11T08:11:23.354Z,28.13
2022-10-11T08:12:24.118Z,28.13
2022-10-11T08:13:24.821Z,33.75
2022-10-11T08:14:25.716Z,33.75
2022-10-11T08:15:27.538Z,33.75
2022-10-11T08:16:27.740Z,28.13
2022-10-11T08:17:27.763Z,28.13
2022-10-11T08:18:27.698Z,33.75
2022-10-11T08:19:29.243Z,33.75
2022-10-11T08:20:29.138Z,33.75
2022-10-11T08:21:30.628Z,33.75
2022-10-11T08:22:31.126Z,33.75
2022-10-11T08:23:32.565Z,33.75
2022-10-11T08:24:37.390Z,33.75
2022-10-11T08:25:33.275Z,33.75
2022-10-11T08:26:34.830Z,33.75
2022-10-11T08:27:34.449Z,33.75
2022-10-11T08:28:35.736Z,33.75
2022-10-11T08:29:36.398Z,33.75
2022-10-11T08:30:37.951Z,33.75
2022-10-11T08:31:38.675Z,33.75
2022-10-11T08:32:38.740Z,33.75
2022-10-11T08:33:39.679Z,33.75
2022-10-11T08:34:40.196Z,33.75
2022-10-11T08:35:41.011Z,33.75
2022-10-11T08:36:41.738Z,33.75
2022-10-11T08:37:41.759Z,33.75
2022-10-11T08:38:41.707Z,33.75
2022-10-11T08:39:42.344Z,33.75
2022-10-11T08:40:47.040Z,33.75
2022-10-11T08:41:43.988Z,33.75
2022-10-11T08:42:45.256Z,33.75
2022-10-11T08:43:44.865Z,33.75
2022-10-11T08:45:22.858Z,28.13
2022-10-11T08:45:46.849Z,33.75
2022-10-11T08:46:47.767Z,33.75
2022-10-11T08:47:48.982Z,28.13
2022-10-11T08:48:49.481Z,28.13
2022-10-11T08:49:49.125Z,28.13
2022-10-11T08:50:50.611Z,28.13
2022-10-11T08:51:51.117Z,28.13
2022-10-11T08:52:51.182Z,28.13
2022-10-11T08:53:52.107Z,28.13
2022-10-11T08:54:53.330Z,28.13
2022-10-11T08:55:52.978Z,28.13
2022-10-11T08:56:54.383Z,28.13
2022-10-11T08:57:54.320Z,28.13
2022-10-11T08:58:55.248Z,28.13
2022-10-11T08:59:55.875Z,28.13
2022-10-11T09:00:57.406Z,28.13
2022-10-11T09:01:57.682Z,28.13
2022-10-11T09:03:26.778Z,28.13
2022-10-11T09:04:25.689Z,28.13
2022-10-11T09:05:26.655Z,28.13
2022-10-11T09:06:26.859Z,28.13
2022-10-11T09:07:27.057Z,28.13
2022-10-11T09:08:27.566Z,33.75
2022-10-11T09:09:27.765Z,33.75
2022-10-11T09:10:28.694Z,33.75
2022-10-11T09:11:29.930Z,33.75
2022-10-11T09:12:36.111Z,33.75
2022-10-11T09:13:31.089Z,33.75
2022-10-11T09:14:31.159Z,33.75
2022-10-11T09:15:31.129Z,39.38
2022-10-11T09:16:31.825Z,39.38
2022-10-11T09:17:32.749Z,39.38
2022-10-11T09:18:32.671Z,39.38
2022-10-11T09:19:33.868Z,45
2022-10-11T09:20:34.871Z,45
2022-10-11T09:21:34.463Z,45
2022-10-11T09:22:41.873Z,45
2022-10-11T09:23:35.902Z,45
2022-10-11T09:24:36.394Z,50.63
2022-10-11T09:25:36.636Z,50.63
2022-10-11T09:26:37.132Z,50.63
2022-10-11T09:28:14.636Z,56.25
2022-10-11T09:28:38.033Z,56.25
2022-10-11T09:29:38.000Z,56.25
2022-10-11T09:30:39.494Z,61.88
2022-10-11T09:31:39.525Z,61.88
2022-10-11T09:32:39.746Z,61.88
2022-10-11T09:33:40.508Z,61.88
2022-10-11T09:34:41.707Z,61.88
2022-10-11T09:35:42.078Z,61.88
2022-10-11T09:36:43.071Z,61.88
2022-10-11T09:37:43.400Z,61.88
2022-10-11T09:38:44.662Z,61.88
2022-10-11T09:39:45.883Z,67.5
2022-10-11T09:40:46.376Z,67.5
2022-10-11T09:41:46.004Z,67.5
2022-10-11T09:42:46.908Z,73.13
2022-10-11T09:43:47.069Z,73.13
2022-10-11T09:44:48.278Z,73.13
2022-10-11T09:45:54.408Z,73.13
2022-10-11T09:46:49.070Z,73.13
2022-10-11T09:47:49.436Z,73.13
2022-10-11T09:48:50.657Z,73.13
2022-10-11T09:49:51.273Z,73.13
2022-10-11T09:50:51.661Z,73.13
2022-10-11T09:51:52.853Z,73.13
2022-10-11T09:52:52.797Z,73.13
2022-10-11T09:53:53.583Z,73.13
2022-10-11T09:54:53.505Z,73.13
2022-10-11T09:55:53.703Z,67.5
2022-10-11T09:56:54.640Z,67.5
2022-10-11T09:57:55.132Z,67.5
2022-10-11T09:58:55.054Z,67.5
2022-10-11T09:59:55.976Z,67.5
2022-10-11T10:00:56.618Z,67.5
2022-10-11T10:01:58.342Z,67.5
2022-10-11T10:02:58.540Z,67.5
2022-10-11T10:03:58.625Z,67.5
2022-10-11T10:04:59.260Z,67.5
2022-10-11T10:06:00.215Z,67.5
2022-10-11T10:07:00.822Z,67.5
2022-10-11T10:08:04.679Z,67.5
2022-10-11T10:09:02.370Z,67.5
2022-10-11T10:10:02.297Z,67.5
2022-10-11T10:11:09.986Z,73.13
2022-10-11T10:12:04.301Z,73.13
2022-10-11T10:13:04.523Z,78.75
2022-10-11T10:14:05.136Z,78.75
2022-10-11T10:15:04.768Z,84.38
2022-10-11T10:16:05.726Z,84.38
2022-10-11T10:17:07.335Z,90
2022-10-11T10:18:07.534Z,90
2022-10-11T10:19:07.580Z,90
2022-10-11T10:20:08.482Z,90
2022-10-11T10:21:09.711Z,90
2022-10-11T10:22:09.894Z,90
2022-10-11T10:23:09.804Z,90
2022-10-11T10:24:10.829Z,90
2022-10-11T10:25:11.346Z,90
2022-10-11T10:26:12.010Z,90
2022-10-11T10:27:11.064Z,95.63
2022-10-11T10:28:12.619Z,90
2022-10-11T10:29:13.370Z,90
2022-10-11T10:30:14.342Z,90
2022-10-11T10:31:14.393Z,90
2022-10-11T10:32:33.250Z,95.63
2022-10-11T10:33:16.471Z,101.25
2022-10-11T10:34:16.218Z,101.25
2022-10-11T10:35:17.439Z,106.88
2022-10-11T10:36:20.680Z,106.88
2022-10-11T10:37:18.985Z,112.5
2022-10-11T10:38:21.765Z,118.13
2022-10-11T10:39:19.609Z,123.75
2022-10-11T10:40:19.553Z,129.38
2022-10-11T10:41:19.475Z,135
2022-10-11T10:42:20.128Z,140.63
2022-10-11T10:43:21.331Z,140.63
2022-10-11T10:44:22.346Z,146.25
2022-10-11T10:45:32.477Z,151.88
2022-10-11T10:46:22.821Z,163.13
2022-10-11T10:47:23.786Z,174.38
2022-10-11T10:48:24.003Z,208.13
2022-10-11T10:50:06.268Z,416.25
2022-10-11T10:50:25.291Z,393.75
2022-10-11T10:51:27.233Z,275.63
2022-10-11T10:52:26.426Z,225
2022-10-11T10:53:26.331Z,236.25
2022-10-11T10:54:27.666Z,219.38
2022-10-11T10:55:27.868Z,241.88
2022-10-11T10:56:28.093Z,303.75
2022-10-11T10:57:28.293Z,303.75
2022-10-11T10:58:34.669Z,286.88
2022-10-11T10:59:28.873Z,309.38
2022-10-11T11:00:29.190Z,354.38
2022-10-11T11:01:31.183Z,506.25
2022-10-11T11:02:56.332Z,540
2022-10-11T11:03:31.625Z,393.75
2022-10-11T11:04:32.635Z,309.38
2022-10-11T11:05:33.691Z,258.75
2022-10-11T11:06:39.621Z,202.5
2022-10-11T11:07:34.507Z,208.13
2022-10-11T11:08:35.134Z,202.5
2022-10-11T11:09:36.668Z,196.88
2022-10-11T11:10:37.171Z,202.5
2022-10-11T11:11:37.386Z,202.5
2022-10-11T11:12:37.008Z,270
2022-10-11T11:13:37.647Z,393.75
2022-10-11T11:14:38.655Z,320.63
2022-10-11T11:15:49.183Z,191.25
2022-10-11T11:16:39.836Z,230.63
2022-10-11T11:17:40.786Z,354.38
2022-10-11T11:18:41.754Z,399.38
2022-10-11T11:19:42.978Z,360
2022-10-11T11:20:42.613Z,438.75
2022-10-11T11:21:47.348Z,376.88
2022-10-11T11:22:49.161Z,393.75
2022-10-11T11:23:45.095Z,360
2022-10-11T11:24:45.967Z,253.13
2022-10-11T11:25:50.296Z,258.75
2022-10-11T11:26:54.229Z,247.5
2022-10-11T11:27:46.910Z,281.25
2022-10-11T11:28:48.535Z,320.63
2022-10-11T11:29:51.903Z,264.38
2022-10-11T11:30:48.704Z,230.63
2022-10-11T11:31:48.645Z,247.5
2022-10-11T11:32:56.471Z,270
2022-10-11T11:33:54.373Z,309.38
2022-10-11T11:34:51.700Z,348.75
2022-10-11T11:35:51.896Z,399.38
2022-10-11T11:36:52.545Z,393.75
2022-10-11T11:37:59.332Z,320.63
2022-10-11T11:38:54.165Z,365.63
2022-10-11T11:39:54.804Z,360
2022-10-11T11:40:55.304Z,343.13
2022-10-11T11:41:54.938Z,461.25
2022-10-11T11:42:56.444Z,399.38
2022-10-11T11:43:56.070Z,399.38
2022-10-11T11:44:56.864Z,376.88
2022-10-11T11:45:58.075Z,315
2022-10-11T11:46:58.573Z,298.13
2022-10-11T11:47:58.242Z,270
2022-10-11T11:48:59.786Z,253.13
2022-10-11T11:50:00.736Z,270
2022-10-11T11:51:00.959Z,275.63
2022-10-11T11:52:01.628Z,292.5
2022-10-11T11:53:02.525Z,326.25
2022-10-11T11:54:03.753Z,286.88
2022-10-11T11:55:08.880Z,286.88
2022-10-11T11:56:04.798Z,303.75
2022-10-11T11:57:05.429Z,303.75
2022-10-11T11:58:12.343Z,298.13
2022-10-11T11:59:07.566Z,292.5
2022-10-11T12:00:07.929Z,331.88
2022-10-11T12:01:09.998Z,270
2022-10-11T12:02:10.191Z,270
2022-10-11T12:03:10.429Z,270
2022-10-11T12:04:11.250Z,270
2022-10-11T12:05:11.549Z,292.5
2022-10-11T12:06:11.480Z,286.88
2022-10-11T12:07:31.219Z,253.13
2022-10-11T12:08:12.842Z,258.75
2022-10-11T12:09:14.047Z,264.38
2022-10-11T12:10:14.772Z,253.13
2022-10-11T12:11:16.166Z,286.88
2022-10-11T12:12:15.367Z,270
2022-10-11T12:13:15.572Z,241.88
2022-10-11T12:14:15.482Z,253.13
2022-10-11T12:15:16.502Z,286.88
2022-10-11T12:16:17.145Z,326.25
2022-10-11T12:17:18.078Z,365.63
2022-10-11T12:18:19.375Z,343.13
2022-10-11T12:19:20.002Z,315
2022-10-11T12:20:20.337Z,326.25
2022-10-11T12:21:20.703Z,315
2022-10-11T12:22:20.367Z,292.5
2022-10-11T12:23:25.421Z,303.75
2022-10-11T12:24:22.336Z,331.88
2022-10-11T12:25:29.757Z,331.88
2022-10-11T12:26:23.974Z,337.5
2022-10-11T12:27:24.474Z,326.25
2022-10-11T12:28:24.791Z,298.13
2022-10-11T12:29:28.934Z,275.63
2022-10-11T12:30:24.486Z,264.38
2022-10-11T12:31:25.927Z,264.38
2022-10-11T12:32:25.604Z,264.38
2022-10-11T12:33:26.898Z,264.38
2022-10-11T12:34:27.014Z,264.38
2022-10-11T12:35:27.389Z,264.38
2022-10-11T12:36:27.797Z,258.75
2022-10-11T12:37:27.993Z,258.75
2022-10-11T12:38:28.042Z,219.38
2022-10-11T12:39:29.242Z,202.5
2022-10-11T12:40:29.166Z,219.38
2022-10-11T12:41:30.382Z,225
2022-10-11T12:42:31.753Z,230.63
2022-10-11T12:43:31.694Z,236.25
2022-10-11T12:44:32.662Z,225
2022-10-11T12:45:33.713Z,225
2022-10-11T12:46:33.959Z,225
2022-10-11T12:47:34.164Z,225
2022-10-11T12:48:46.653Z,202.5
2022-10-11T12:49:35.343Z,247.5
2022-10-11T12:50:36.031Z,236.25
2022-10-11T12:51:37.099Z,219.38
2022-10-11T12:52:37.026Z,213.75
2022-10-11T12:53:37.697Z,225
2022-10-11T12:54:48.314Z,219.38
2022-10-11T12:55:39.932Z,219.38
2022-10-11T12:56:39.885Z,191.25
2022-10-11T12:57:45.306Z,202.5
2022-10-11T12:58:41.926Z,180
2022-10-11T12:59:43.134Z,185.63
2022-10-11T13:00:43.381Z,196.88
2022-10-11T13:01:44.182Z,196.88
2022-10-11T13:02:45.166Z,180
2022-10-11T13:03:48.960Z,185.63
2022-10-11T13:04:45.885Z,174.38
2022-10-11T13:05:53.680Z,163.13
2022-10-11T13:06:47.813Z,157.5
2022-10-11T13:07:48.039Z,157.5
2022-10-11T13:08:48.616Z,163.13
2022-10-11T13:09:54.144Z,168.75
2022-10-11T13:10:49.362Z,174.38
2022-10-11T13:11:50.339Z,191.25
2022-10-11T13:12:50.263Z,208.13
2022-10-11T13:13:51.485Z,213.75
2022-10-11T13:14:52.707Z,208.13
2022-10-11T13:15:52.478Z,219.38
2022-10-11T13:16:53.409Z,236.25
2022-10-11T13:17:55.145Z,225
2022-10-11T13:18:55.381Z,253.13
2022-10-11T13:19:58.917Z,270
2022-10-11T13:20:59.082Z,208.13
2022-10-11T13:21:56.582Z,135
2022-10-11T13:22:56.548Z,180
2022-10-11T13:23:57.516Z,140.63
2022-10-11T13:24:57.703Z,129.38
2022-10-11T13:25:58.180Z,151.88
2022-10-11T13:26:59.126Z,270
2022-10-11T13:27:59.126Z,264.38
2022-10-11T13:29:00.897Z,247.5
2022-10-11T13:30:00.822Z,241.88
2022-10-11T13:31:00.508Z,196.88
2022-10-11T13:32:01.521Z,123.75
2022-10-11T13:33:02.544Z,95.63
2022-10-11T13:34:03.887Z,90
2022-10-11T13:35:04.211Z,90
2022-10-11T13:36:04.649Z,101.25
2022-10-11T13:37:04.608Z,202.5
2022-10-11T13:38:05.543Z,208.13
2022-10-11T13:39:06.504Z,208.13
2022-10-11T13:40:06.401Z,168.75
2022-10-11T13:41:07.738Z,84.38
2022-10-11T13:42:07.986Z,123.75
2022-10-11T13:43:09.207Z,180
2022-10-11T13:44:09.417Z,180
2022-10-11T13:45:09.634Z,180
2022-10-11T13:46:11.169Z,180
2022-10-11T13:47:11.819Z,174.38
2022-10-11T13:48:11.543Z,180